sensor_id;sensor_type;location;lat;lon;timestamp;temperature;humidity
52397;DHT22;38322;53.108;6.308;2023-05-14T05:02:03;10.60;99.90
52397;DHT22;38322;53.108;6.308;2023-05-14T05:04:29;10.70;99.90
52397;DHT22;38322;53.108;6.308;2023-05-14T05:06:55;10.70;99.90
52397;DHT22;38322;53.108;6.308;2023-05-14T05:09:20;10.90;99.90
52397;DHT22;38322;53.108;6.308;2023-05-14T05:11:46;10.90;99.90
52397;DHT22;38322;53.108;6.308;2023-05-14T05:14:12;10.90;99.90
52397;DHT22;38322;53.108;6.308;2023-05-14T05:16:38;11.00;99.90
52397;DHT22;38322;53.108;6.308;2023-05-14T05:19:03;11.00;99.90
52397;DHT22;38322;53.108;6.308;2023-05-14T05:21:29;11.10;99.90
52397;DHT22;38322;53.108;6.308;2023-05-14T05:23:55;11.20;99.90
52397;DHT22;38322;53.108;6.308;2023-05-14T05:26:21;11.20;99.90
52397;DHT22;38322;53.108;6.308;2023-05-14T05:28:47;11.40;99.90
52397;DHT22;38322;53.108;6.308;2023-05-14T05:31:13;11.30;99.90
52397;DHT22;38322;53.108;6.308;2023-05-14T05:33:39;11.30;99.90
52397;DHT22;38322;53.108;6.308;2023-05-14T05:36:04;11.30;99.90
52397;DHT22;38322;53.108;6.308;2023-05-14T05:38:30;11.30;99.90
52397;DHT22;38322;53.108;6.308;2023-05-14T05:40:56;11.30;99.90
52397;DHT22;38322;53.108;6.308;2023-05-14T05:43:22;11.30;99.90
52397;DHT22;38322;53.108;6.308;2023-05-14T05:45:47;11.30;99.90
52397;DHT22;38322;53.108;6.308;2023-05-14T05:48:13;11.30;99.90
52397;DHT22;38322;53.108;6.308;2023-05-14T05:50:39;11.30;99.90
52397;DHT22;38322;53.108;6.308;2023-05-14T05:53:05;11.20;99.90
52397;DHT22;38322;53.108;6.308;2023-05-14T05:55:30;11.30;99.90
52397;DHT22;38322;53.108;6.308;2023-05-14T05:57:56;11.40;99.90
52397;DHT22;38322;53.108;6.308;2023-05-14T06:00:22;11.30;99.90
52397;DHT22;38322;53.108;6.308;2023-05-14T06:02:48;11.30;99.90
52397;DHT22;38322;53.108;6.308;2023-05-14T06:05:14;11.40;99.90
52397;DHT22;38322;53.108;6.308;2023-05-14T06:07:40;11.50;99.90
52397;DHT22;38322;53.108;6.308;2023-05-14T06:10:06;11.50;99.90
52397;DHT22;38322;53.108;6.308;2023-05-14T06:12:32;11.70;99.90
52397;DHT22;38322;53.108;6.308;2023-05-14T06:14:58;11.70;99.90
52397;DHT22;38322;53.108;6.308;2023-05-14T06:17:24;11.80;99.90
52397;DHT22;38322;53.108;6.308;2023-05-14T06:19:50;11.90;99.90
52397;DHT22;38322;53.108;6.308;2023-05-14T06:22:16;11.90;99.90
52397;DHT22;38322;53.108;6.308;2023-05-14T06:24:42;12.20;99.90
52397;DHT22;38322;53.108;6.308;2023-05-14T06:27:09;12.10;99.90
52397;DHT22;38322;53.108;6.308;2023-05-14T06:29:36;12.20;99.90
52397;DHT22;38322;53.108;6.308;2023-05-14T06:32:03;12.30;99.90
52397;DHT22;38322;53.108;6.308;2023-05-14T06:34:29;12.40;99.90
52397;DHT22;38322;53.108;6.308;2023-05-14T06:36:55;12.40;99.90
52397;DHT22;38322;53.108;6.308;2023-05-14T06:39:22;12.40;99.90
52397;DHT22;38322;53.108;6.308;2023-05-14T06:41:47;12.50;99.90
52397;DHT22;38322;53.108;6.308;2023-05-14T06:44:13;12.60;99.90
52397;DHT22;38322;53.108;6.308;2023-05-14T06:46:39;12.60;99.90
52397;DHT22;38322;53.108;6.308;2023-05-14T06:49:04;12.70;99.90
52397;DHT22;38322;53.108;6.308;2023-05-14T06:51:30;12.60;99.90
52397;DHT22;38322;53.108;6.308;2023-05-14T06:53:57;12.70;99.90
52397;DHT22;38322;53.108;6.308;2023-05-14T06:56:22;12.80;99.90
52397;DHT22;38322;53.108;6.308;2023-05-14T06:58:48;12.80;99.90
52397;DHT22;38322;53.108;6.308;2023-05-14T07:01:14;12.80;99.90
52397;DHT22;38322;53.108;6.308;2023-05-14T07:03:40;12.80;99.90
52397;DHT22;38322;53.108;6.308;2023-05-14T07:06:06;12.80;99.90
52397;DHT22;38322;53.108;6.308;2023-05-14T07:08:32;12.90;99.90
52397;DHT22;38322;53.108;6.308;2023-05-14T07:10:58;12.90;99.90
52397;DHT22;38322;53.108;6.308;2023-05-14T07:13:25;13.00;99.90
52397;DHT22;38322;53.108;6.308;2023-05-14T07:15:52;13.00;99.90
52397;DHT22;38322;53.108;6.308;2023-05-14T07:18:22;13.10;99.90
52397;DHT22;38322;53.108;6.308;2023-05-14T07:20:48;13.10;99.90
52397;DHT22;38322;53.108;6.308;2023-05-14T07:23:14;13.20;99.90
52397;DHT22;38322;53.108;6.308;2023-05-14T07:25:40;13.30;99.90
52397;DHT22;38322;53.108;6.308;2023-05-14T07:28:05;13.40;99.90
52397;DHT22;38322;53.108;6.308;2023-05-14T07:30:31;13.50;99.90
52397;DHT22;38322;53.108;6.308;2023-05-14T07:32:57;13.60;99.90
52397;DHT22;38322;53.108;6.308;2023-05-14T07:35:23;13.80;99.90
52397;DHT22;38322;53.108;6.308;2023-05-14T07:37:49;13.80;99.90
52397;DHT22;38322;53.108;6.308;2023-05-14T07:40:15;13.90;99.90
52397;DHT22;38322;53.108;6.308;2023-05-14T07:42:40;14.10;99.90
52397;DHT22;38322;53.108;6.308;2023-05-14T07:45:07;14.10;99.90
52397;DHT22;38322;53.108;6.308;2023-05-14T07:47:34;14.10;99.90
52397;DHT22;38322;53.108;6.308;2023-05-14T07:49:59;14.20;99.90
52397;DHT22;38322;53.108;6.308;2023-05-14T07:52:25;14.30;99.90
52397;DHT22;38322;53.108;6.308;2023-05-14T07:54:51;14.50;99.90
52397;DHT22;38322;53.108;6.308;2023-05-14T07:57:18;14.60;99.90
52397;DHT22;38322;53.108;6.308;2023-05-14T07:59:44;14.70;99.90
52397;DHT22;38322;53.108;6.308;2023-05-14T08:02:10;14.80;99.90
52397;DHT22;38322;53.108;6.308;2023-05-14T08:04:37;14.90;99.90
52397;DHT22;38322;53.108;6.308;2023-05-14T08:07:04;15.00;99.90
52397;DHT22;38322;53.108;6.308;2023-05-14T08:09:30;15.10;99.90
52397;DHT22;38322;53.108;6.308;2023-05-14T08:11:55;15.20;99.90
52397;DHT22;38322;53.108;6.308;2023-05-14T08:14:22;15.20;99.90
52397;DHT22;38322;53.108;6.308;2023-05-14T08:16:47;15.40;99.90
52397;DHT22;38322;53.108;6.308;2023-05-14T08:19:14;15.40;99.90
52397;DHT22;38322;53.108;6.308;2023-05-14T08:21:40;15.40;99.90
52397;DHT22;38322;53.108;6.308;2023-05-14T08:24:06;15.50;99.90
52397;DHT22;38322;53.108;6.308;2023-05-14T08:26:31;15.60;99.90
52397;DHT22;38322;53.108;6.308;2023-05-14T08:28:57;15.60;99.90
52397;DHT22;38322;53.108;6.308;2023-05-14T08:31:23;15.50;99.90
52397;DHT22;38322;53.108;6.308;2023-05-14T08:33:49;15.40;99.90
52397;DHT22;38322;53.108;6.308;2023-05-14T08:36:15;15.30;99.90
52397;DHT22;38322;53.108;6.308;2023-05-14T08:38:40;15.20;99.90
52397;DHT22;38322;53.108;6.308;2023-05-14T08:41:07;15.20;99.90
52397;DHT22;38322;53.108;6.308;2023-05-14T08:46:23;15.20;99.90
52397;DHT22;38322;53.108;6.308;2023-05-14T08:48:56;15.30;99.90
52397;DHT22;38322;53.108;6.308;2023-05-14T08:51:24;15.30;99.90
52397;DHT22;38322;53.108;6.308;2023-05-14T08:53:50;15.30;99.90
52397;DHT22;38322;53.108;6.308;2023-05-14T08:56:17;15.40;99.90
52397;DHT22;38322;53.108;6.308;2023-05-14T08:58:43;15.60;99.90
52397;DHT22;38322;53.108;6.308;2023-05-14T09:01:09;15.60;99.90
52397;DHT22;38322;53.108;6.308;2023-05-14T09:03:36;15.70;99.90
52397;DHT22;38322;53.108;6.308;2023-05-14T09:06:03;15.70;99.90
52397;DHT22;38322;53.108;6.308;2023-05-14T09:08:30;15.70;99.90
52397;DHT22;38322;53.108;6.308;2023-05-14T09:10:56;15.80;99.90
52397;DHT22;38322;53.108;6.308;2023-05-14T09:13:21;15.80;99.90
52397;DHT22;38322;53.108;6.308;2023-05-14T09:15:48;15.90;99.90
52397;DHT22;38322;53.108;6.308;2023-05-14T09:18:16;16.00;99.90
52397;DHT22;38322;53.108;6.308;2023-05-14T09:20:42;15.90;99.90
52397;DHT22;38322;53.108;6.308;2023-05-14T09:23:07;15.90;99.90
52397;DHT22;38322;53.108;6.308;2023-05-14T09:25:33;15.80;99.90
52397;DHT22;38322;53.108;6.308;2023-05-14T09:27:59;15.70;99.90
52397;DHT22;38322;53.108;6.308;2023-05-14T09:30:30;15.80;99.90
52397;DHT22;38322;53.108;6.308;2023-05-14T09:32:56;15.80;99.90
52397;DHT22;38322;53.108;6.308;2023-05-14T09:35:23;15.80;99.90
52397;DHT22;38322;53.108;6.308;2023-05-14T09:37:51;16.00;99.90
52397;DHT22;38322;53.108;6.308;2023-05-14T09:40:18;16.10;99.90
52397;DHT22;38322;53.108;6.308;2023-05-14T09:42:45;16.30;99.90
52397;DHT22;38322;53.108;6.308;2023-05-14T09:45:12;16.30;99.90
52397;DHT22;38322;53.108;6.308;2023-05-14T09:47:38;16.20;99.90
52397;DHT22;38322;53.108;6.308;2023-05-14T09:50:05;16.30;99.90
52397;DHT22;38322;53.108;6.308;2023-05-14T09:52:31;16.40;99.90
52397;DHT22;38322;53.108;6.308;2023-05-14T09:54:57;16.40;99.90
52397;DHT22;38322;53.108;6.308;2023-05-14T09:57:24;16.50;99.90
52397;DHT22;38322;53.108;6.308;2023-05-14T09:59:51;16.70;99.90
52397;DHT22;38322;53.108;6.308;2023-05-14T10:02:24;16.90;99.90
52397;DHT22;38322;53.108;6.308;2023-05-14T10:04:52;16.90;99.90
52397;DHT22;38322;53.108;6.308;2023-05-14T10:07:25;17.00;99.90
52397;DHT22;38322;53.108;6.308;2023-05-14T10:09:56;17.10;99.90
52397;DHT22;38322;53.108;6.308;2023-05-14T10:12:22;17.00;99.90
52397;DHT22;38322;53.108;6.308;2023-05-14T10:14:49;17.10;99.90
52397;DHT22;38322;53.108;6.308;2023-05-14T10:17:20;17.20;99.90
52397;DHT22;38322;53.108;6.308;2023-05-14T10:19:53;17.10;99.90
52397;DHT22;38322;53.108;6.308;2023-05-14T10:22:22;17.20;99.90
52397;DHT22;38322;53.108;6.308;2023-05-14T10:24:50;17.20;99.90
52397;DHT22;38322;53.108;6.308;2023-05-14T10:27:20;17.20;99.90
52397;DHT22;38322;53.108;6.308;2023-05-14T10:29:51;17.20;99.90
52397;DHT22;38322;53.108;6.308;2023-05-14T10:32:24;17.30;99.90
52397;DHT22;38322;53.108;6.308;2023-05-14T10:34:51;17.30;99.90
52397;DHT22;38322;53.108;6.308;2023-05-14T10:37:24;17.50;99.90
52397;DHT22;38322;53.108;6.308;2023-05-14T10:39:53;17.50;99.90
52397;DHT22;38322;53.108;6.308;2023-05-14T10:42:23;17.60;99.90
52397;DHT22;38322;53.108;6.308;2023-05-14T10:44:51;17.60;99.90
52397;DHT22;38322;53.108;6.308;2023-05-14T10:47:18;17.50;99.90
52397;DHT22;38322;53.108;6.308;2023-05-14T10:49:45;17.70;99.90
52397;DHT22;38322;53.108;6.308;2023-05-14T10:52:16;17.90;99.90
52397;DHT22;38322;53.108;6.308;2023-05-14T10:54:54;17.90;99.90
52397;DHT22;38322;53.108;6.308;2023-05-14T10:57:21;17.90;99.90
52397;DHT22;38322;53.108;6.308;2023-05-14T10:59:49;18.00;99.90
52397;DHT22;38322;53.108;6.308;2023-05-14T11:02:21;17.90;99.90
52397;DHT22;38322;53.108;6.308;2023-05-14T11:04:54;17.90;99.90
52397;DHT22;38322;53.108;6.308;2023-05-14T11:07:26;17.90;99.90
52397;DHT22;38322;53.108;6.308;2023-05-14T11:09:53;18.00;99.90
52397;DHT22;38322;53.108;6.308;2023-05-14T11:12:20;18.00;99.90
52397;DHT22;38322;53.108;6.308;2023-05-14T11:14:46;18.10;99.90
52397;DHT22;38322;53.108;6.308;2023-05-14T11:17:12;18.20;99.90
52397;DHT22;38322;53.108;6.308;2023-05-14T11:19:38;18.20;99.90
52397;DHT22;38322;53.108;6.308;2023-05-14T11:22:04;18.30;99.90
52397;DHT22;38322;53.108;6.308;2023-05-14T11:24:30;18.40;99.90
52397;DHT22;38322;53.108;6.308;2023-05-14T11:26:55;18.40;99.90
52397;DHT22;38322;53.108;6.308;2023-05-14T11:29:21;18.50;99.90
52397;DHT22;38322;53.108;6.308;2023-05-14T11:31:48;18.60;99.90
52397;DHT22;38322;53.108;6.308;2023-05-14T11:34:14;18.50;99.90
52397;DHT22;38322;53.108;6.308;2023-05-14T11:36:40;18.60;99.90
52397;DHT22;38322;53.108;6.308;2023-05-14T11:39:06;18.60;99.90
52397;DHT22;38322;53.108;6.308;2023-05-14T11:41:32;18.70;99.90
52397;DHT22;38322;53.108;6.308;2023-05-14T11:43:58;18.70;99.90
52397;DHT22;38322;53.108;6.308;2023-05-14T11:46:24;18.80;99.90
52397;DHT22;38322;53.108;6.308;2023-05-14T11:48:50;18.90;99.90
52397;DHT22;38322;53.108;6.308;2023-05-14T11:51:16;19.00;99.90
52397;DHT22;38322;53.108;6.308;2023-05-14T11:53:42;19.10;99.90
52397;DHT22;38322;53.108;6.308;2023-05-14T11:56:09;19.10;99.90
52397;DHT22;38322;53.108;6.308;2023-05-14T11:58:35;19.20;99.90
52397;DHT22;38322;53.108;6.308;2023-05-14T12:01:01;19.30;99.90
52397;DHT22;38322;53.108;6.308;2023-05-14T12:03:29;19.50;99.90
52397;DHT22;38322;53.108;6.308;2023-05-14T12:06:02;19.60;99.90
52397;DHT22;38322;53.108;6.308;2023-05-14T12:08:31;19.70;99.90
52397;DHT22;38322;53.108;6.308;2023-05-14T12:10:59;19.90;99.90
52397;DHT22;38322;53.108;6.308;2023-05-14T12:13:32;19.70;99.90
52397;DHT22;38322;53.108;6.308;2023-05-14T12:15:59;19.80;99.90
52397;DHT22;38322;53.108;6.308;2023-05-14T12:18:28;19.70;99.90
52397;DHT22;38322;53.108;6.308;2023-05-14T12:20:54;19.80;99.90
52397;DHT22;38322;53.108;6.308;2023-05-14T12:23:24;19.90;99.90
52397;DHT22;38322;53.108;6.308;2023-05-14T12:25:50;20.00;99.90
52397;DHT22;38322;53.108;6.308;2023-05-14T12:28:16;19.90;99.90
52397;DHT22;38322;53.108;6.308;2023-05-14T12:30:42;20.00;99.90
52397;DHT22;38322;53.108;6.308;2023-05-14T12:33:08;19.90;99.90
52397;DHT22;38322;53.108;6.308;2023-05-14T12:35:34;20.00;99.90
52397;DHT22;38322;53.108;6.308;2023-05-14T12:38:02;20.10;99.90
52397;DHT22;38322;53.108;6.308;2023-05-14T12:40:28;20.20;99.90
52397;DHT22;38322;53.108;6.308;2023-05-14T12:42:54;20.20;99.90
52397;DHT22;38322;53.108;6.308;2023-05-14T12:45:20;20.20;99.90
52397;DHT22;38322;53.108;6.308;2023-05-14T12:47:45;20.30;99.90
52397;DHT22;38322;53.108;6.308;2023-05-14T12:50:11;20.20;99.90
52397;DHT22;38322;53.108;6.308;2023-05-14T12:52:37;20.20;99.90
52397;DHT22;38322;53.108;6.308;2023-05-14T12:55:03;20.20;99.90
52397;DHT22;38322;53.108;6.308;2023-05-14T12:57:29;20.30;99.90
52397;DHT22;38322;53.108;6.308;2023-05-14T12:59:55;20.30;99.90
52397;DHT22;38322;53.108;6.308;2023-05-14T13:02:21;20.40;99.90
52397;DHT22;38322;53.108;6.308;2023-05-14T13:04:47;20.40;99.90
52397;DHT22;38322;53.108;6.308;2023-05-14T13:07:14;20.40;99.90
52397;DHT22;38322;53.108;6.308;2023-05-14T13:09:39;20.40;99.90
52397;DHT22;38322;53.108;6.308;2023-05-14T13:12:05;20.50;99.90
52397;DHT22;38322;53.108;6.308;2023-05-14T13:14:31;20.60;99.90
52397;DHT22;38322;53.108;6.308;2023-05-14T13:16:57;20.60;99.90
52397;DHT22;38322;53.108;6.308;2023-05-14T13:19:23;20.70;99.90
52397;DHT22;38322;53.108;6.308;2023-05-14T13:21:48;20.80;99.90
52397;DHT22;38322;53.108;6.308;2023-05-14T13:24:14;20.90;99.90
52397;DHT22;38322;53.108;6.308;2023-05-14T13:26:41;21.00;99.90
52397;DHT22;38322;53.108;6.308;2023-05-14T13:29:08;21.00;99.90
52397;DHT22;38322;53.108;6.308;2023-05-14T13:31:34;20.80;99.90
52397;DHT22;38322;53.108;6.308;2023-05-14T13:34:00;20.80;99.90
52397;DHT22;38322;53.108;6.308;2023-05-14T13:36:27;20.80;99.90
52397;DHT22;38322;53.108;6.308;2023-05-14T13:38:52;20.80;99.90
52397;DHT22;38322;53.108;6.308;2023-05-14T13:41:18;20.80;99.90
52397;DHT22;38322;53.108;6.308;2023-05-14T13:43:44;20.80;99.90
52397;DHT22;38322;53.108;6.308;2023-05-14T13:46:10;20.90;99.90
52397;DHT22;38322;53.108;6.308;2023-05-14T13:48:35;20.80;99.90
52397;DHT22;38322;53.108;6.308;2023-05-14T13:51:02;20.80;99.90
52397;DHT22;38322;53.108;6.308;2023-05-14T13:53:27;20.80;99.90
52397;DHT22;38322;53.108;6.308;2023-05-14T13:55:53;21.00;99.90
52397;DHT22;38322;53.108;6.308;2023-05-14T13:58:23;21.00;99.90
52397;DHT22;38322;53.108;6.308;2023-05-14T14:00:50;21.10;99.90
52397;DHT22;38322;53.108;6.308;2023-05-14T14:03:16;21.00;99.90
52397;DHT22;38322;53.108;6.308;2023-05-14T14:05:42;21.10;99.90
52397;DHT22;38322;53.108;6.308;2023-05-14T14:08:08;21.10;99.90
52397;DHT22;38322;53.108;6.308;2023-05-14T14:10:33;21.10;99.90
52397;DHT22;38322;53.108;6.308;2023-05-14T14:13:00;21.10;99.90
52397;DHT22;38322;53.108;6.308;2023-05-14T14:15:25;21.10;99.90
52397;DHT22;38322;53.108;6.308;2023-05-14T14:17:51;20.90;99.90
52397;DHT22;38322;53.108;6.308;2023-05-14T14:20:17;20.90;99.90
52397;DHT22;38322;53.108;6.308;2023-05-14T14:22:43;20.80;99.90
52397;DHT22;38322;53.108;6.308;2023-05-14T14:25:10;20.90;99.90
52397;DHT22;38322;53.108;6.308;2023-05-14T14:27:37;20.70;99.90
52397;DHT22;38322;53.108;6.308;2023-05-14T14:30:06;21.10;99.90
52397;DHT22;38322;53.108;6.308;2023-05-14T14:32:32;20.80;99.90
52397;DHT22;38322;53.108;6.308;2023-05-14T14:34:58;20.80;99.90
52397;DHT22;38322;53.108;6.308;2023-05-14T14:37:24;20.80;99.90
52397;DHT22;38322;53.108;6.308;2023-05-14T14:39:49;20.80;99.90
52397;DHT22;38322;53.108;6.308;2023-05-14T14:42:15;20.90;99.90
52397;DHT22;38322;53.108;6.308;2023-05-14T14:44:41;20.90;99.90
52397;DHT22;38322;53.108;6.308;2023-05-14T14:47:07;21.00;99.90
52397;DHT22;38322;53.108;6.308;2023-05-14T14:49:32;21.00;99.90
52397;DHT22;38322;53.108;6.308;2023-05-14T14:51:58;20.80;99.90
52397;DHT22;38322;53.108;6.308;2023-05-14T14:54:24;20.90;99.90
52397;DHT22;38322;53.108;6.308;2023-05-14T14:56:50;21.00;99.90
52397;DHT22;38322;53.108;6.308;2023-05-14T14:59:17;21.20;99.90
52397;DHT22;38322;53.108;6.308;2023-05-14T15:01:42;20.80;99.90
52397;DHT22;38322;53.108;6.308;2023-05-14T15:04:08;20.80;99.90
52397;DHT22;38322;53.108;6.308;2023-05-14T15:06:34;20.90;99.90
52397;DHT22;38322;53.108;6.308;2023-05-14T15:09:00;20.80;99.90
52397;DHT22;38322;53.108;6.308;2023-05-14T15:11:26;20.60;99.90
52397;DHT22;38322;53.108;6.308;2023-05-14T15:13:53;20.60;99.90
52397;DHT22;38322;53.108;6.308;2023-05-14T15:16:19;20.60;99.90
52397;DHT22;38322;53.108;6.308;2023-05-14T15:18:45;20.50;99.90
52397;DHT22;38322;53.108;6.308;2023-05-14T15:21:11;20.30;99.90
52397;DHT22;38322;53.108;6.308;2023-05-14T15:23:37;20.20;99.90
52397;DHT22;38322;53.108;6.308;2023-05-14T15:26:03;20.20;99.90
52397;DHT22;38322;53.108;6.308;2023-05-14T15:28:29;20.20;99.90
52397;DHT22;38322;53.108;6.308;2023-05-14T15:30:55;20.10;99.90
52397;DHT22;38322;53.108;6.308;2023-05-14T15:33:21;20.10;99.90
52397;DHT22;38322;53.108;6.308;2023-05-14T15:35:46;19.90;99.90
52397;DHT22;38322;53.108;6.308;2023-05-14T15:38:12;20.00;99.90
52397;DHT22;38322;53.108;6.308;2023-05-14T15:40:39;20.10;99.90
52397;DHT22;38322;53.108;6.308;2023-05-14T15:43:05;20.00;99.90
52397;DHT22;38322;53.108;6.308;2023-05-14T15:45:31;20.10;99.90
52397;DHT22;38322;53.108;6.308;2023-05-14T15:47:57;20.10;99.90
52397;DHT22;38322;53.108;6.308;2023-05-14T15:50:22;20.10;99.90
52397;DHT22;38322;53.108;6.308;2023-05-14T15:52:49;19.90;99.90
52397;DHT22;38322;53.108;6.308;2023-05-14T15:55:15;19.80;99.90
52397;DHT22;38322;53.108;6.308;2023-05-14T15:57:41;19.60;99.90
52397;DHT22;38322;53.108;6.308;2023-05-14T16:00:07;19.40;99.90
52397;DHT22;38322;53.108;6.308;2023-05-14T16:02:37;19.50;99.90
52397;DHT22;38322;53.108;6.308;2023-05-14T16:05:03;19.50;99.90
52397;DHT22;38322;53.108;6.308;2023-05-14T16:07:29;19.70;99.90
52397;DHT22;38322;53.108;6.308;2023-05-14T16:09:55;19.70;99.90
52397;DHT22;38322;53.108;6.308;2023-05-14T16:12:21;19.60;99.90
52397;DHT22;38322;53.108;6.308;2023-05-14T16:14:46;19.60;99.90
52397;DHT22;38322;53.108;6.308;2023-05-14T16:17:12;19.40;99.90
52397;DHT22;38322;53.108;6.308;2023-05-14T16:19:38;19.30;99.90
52397;DHT22;38322;53.108;6.308;2023-05-14T16:22:04;19.20;99.90
52397;DHT22;38322;53.108;6.308;2023-05-14T16:24:30;19.10;99.90
52397;DHT22;38322;53.108;6.308;2023-05-14T16:26:56;18.90;99.90
52397;DHT22;38322;53.108;6.308;2023-05-14T16:29:21;18.90;99.90
52397;DHT22;38322;53.108;6.308;2023-05-14T16:31:47;18.70;99.90
52397;DHT22;38322;53.108;6.308;2023-05-14T16:34:13;18.40;99.90
52397;DHT22;38322;53.108;6.308;2023-05-14T16:36:39;18.30;99.90
52397;DHT22;38322;53.108;6.308;2023-05-14T16:39:04;18.20;99.90
52397;DHT22;38322;53.108;6.308;2023-05-14T16:41:32;18.10;99.90
52397;DHT22;38322;53.108;6.308;2023-05-14T16:43:58;18.00;99.90
52397;DHT22;38322;53.108;6.308;2023-05-14T16:46:24;17.80;99.90
52397;DHT22;38322;53.108;6.308;2023-05-14T16:48:49;17.50;99.90
52397;DHT22;38322;53.108;6.308;2023-05-14T16:51:15;17.30;99.90
52397;DHT22;38322;53.108;6.308;2023-05-14T16:53:41;17.20;99.90
52397;DHT22;38322;53.108;6.308;2023-05-14T16:56:07;17.00;99.90
52397;DHT22;38322;53.108;6.308;2023-05-14T16:58:32;16.80;99.90
52397;DHT22;38322;53.108;6.308;2023-05-14T17:00:58;16.80;99.90
52397;DHT22;38322;53.108;6.308;2023-05-14T17:03:24;16.70;99.90
52397;DHT22;38322;53.108;6.308;2023-05-14T17:05:50;16.60;99.90
52397;DHT22;38322;53.108;6.308;2023-05-14T17:08:16;16.50;99.90
52397;DHT22;38322;53.108;6.308;2023-05-14T17:10:41;16.30;99.90
52397;DHT22;38322;53.108;6.308;2023-05-14T17:13:07;16.20;99.90
52397;DHT22;38322;53.108;6.308;2023-05-14T17:15:34;15.90;99.90
52397;DHT22;38322;53.108;6.308;2023-05-14T17:18:00;15.90;99.90
52397;DHT22;38322;53.108;6.308;2023-05-14T17:20:26;15.80;99.90
52397;DHT22;38322;53.108;6.308;2023-05-14T17:22:53;15.60;99.90
52397;DHT22;38322;53.108;6.308;2023-05-14T17:25:18;15.60;99.90
52397;DHT22;38322;53.108;6.308;2023-05-14T17:27:44;15.40;99.90
52397;DHT22;38322;53.108;6.308;2023-05-14T17:30:10;15.10;99.90
52397;DHT22;38322;53.108;6.308;2023-05-14T17:32:36;14.90;99.90
52397;DHT22;38322;53.108;6.308;2023-05-14T17:35:02;14.90;99.90
52397;DHT22;38322;53.108;6.308;2023-05-14T17:37:28;14.80;99.90
52397;DHT22;38322;53.108;6.308;2023-05-14T17:39:53;14.60;99.90
52397;DHT22;38322;53.108;6.308;2023-05-14T17:42:19;14.50;99.90
52397;DHT22;38322;53.108;6.308;2023-05-14T17:44:45;14.40;99.90
52397;DHT22;38322;53.108;6.308;2023-05-14T17:47:11;14.40;99.90
52397;DHT22;38322;53.108;6.308;2023-05-14T17:49:36;14.30;99.90
52397;DHT22;38322;53.108;6.308;2023-05-14T17:52:02;14.10;99.90
52397;DHT22;38322;53.108;6.308;2023-05-14T17:54:28;14.00;99.90
52397;DHT22;38322;53.108;6.308;2023-05-14T17:56:54;13.80;99.90
52397;DHT22;38322;53.108;6.308;2023-05-14T17:59:20;13.80;99.90
52397;DHT22;38322;53.108;6.308;2023-05-14T18:01:46;13.70;99.90
52397;DHT22;38322;53.108;6.308;2023-05-14T18:04:12;13.80;99.90
52397;DHT22;38322;53.108;6.308;2023-05-14T18:06:38;13.70;99.90
52397;DHT22;38322;53.108;6.308;2023-05-14T18:09:04;13.60;99.90
52397;DHT22;38322;53.108;6.308;2023-05-14T18:11:29;13.50;99.90
52397;DHT22;38322;53.108;6.308;2023-05-14T18:13:59;13.50;99.90
52397;DHT22;38322;53.108;6.308;2023-05-14T18:16:25;13.50;99.90
52397;DHT22;38322;53.108;6.308;2023-05-14T18:18:51;13.40;99.90
52397;DHT22;38322;53.108;6.308;2023-05-14T18:21:17;13.40;99.90
52397;DHT22;38322;53.108;6.308;2023-05-14T18:23:43;13.30;99.90
52397;DHT22;38322;53.108;6.308;2023-05-14T18:26:08;13.20;99.90
52397;DHT22;38322;53.108;6.308;2023-05-14T18:28:35;13.10;99.90
52397;DHT22;38322;53.108;6.308;2023-05-14T18:31:01;13.00;99.90
52397;DHT22;38322;53.108;6.308;2023-05-14T18:33:29;13.00;99.90
52397;DHT22;38322;53.108;6.308;2023-05-14T18:35:55;13.10;99.90
52397;DHT22;38322;53.108;6.308;2023-05-14T18:38:21;13.00;99.90
52397;DHT22;38322;53.108;6.308;2023-05-14T18:40:47;12.90;99.90
52397;DHT22;38322;53.108;6.308;2023-05-14T18:43:14;12.90;99.90
52397;DHT22;38322;53.108;6.308;2023-05-14T18:45:41;12.80;99.90
52397;DHT22;38322;53.108;6.308;2023-05-14T18:48:08;12.70;99.90
52397;DHT22;38322;53.108;6.308;2023-05-14T18:50:34;12.70;99.90
52397;DHT22;38322;53.108;6.308;2023-05-14T18:53:00;12.60;99.90
52397;DHT22;38322;53.108;6.308;2023-05-14T18:55:25;12.50;99.90
52397;DHT22;38322;53.108;6.308;2023-05-14T18:57:51;12.50;99.90
52397;DHT22;38322;53.108;6.308;2023-05-14T19:00:17;12.40;99.90
52397;DHT22;38322;53.108;6.308;2023-05-14T19:02:43;12.40;99.90
52397;DHT22;38322;53.108;6.308;2023-05-14T19:05:09;12.40;99.90
52397;DHT22;38322;53.108;6.308;2023-05-14T19:07:36;12.30;99.90
52397;DHT22;38322;53.108;6.308;2023-05-14T19:10:03;12.40;99.90
52397;DHT22;38322;53.108;6.308;2023-05-14T19:12:29;12.20;99.90
52397;DHT22;38322;53.108;6.308;2023-05-14T19:14:56;12.20;99.90
52397;DHT22;38322;53.108;6.308;2023-05-14T19:17:23;12.20;99.90
52397;DHT22;38322;53.108;6.308;2023-05-14T19:19:48;12.20;99.90
52397;DHT22;38322;53.108;6.308;2023-05-14T19:22:15;12.10;99.90
52397;DHT22;38322;53.108;6.308;2023-05-14T19:24:41;12.10;99.90
52397;DHT22;38322;53.108;6.308;2023-05-14T19:27:07;12.10;99.90
52397;DHT22;38322;53.108;6.308;2023-05-14T19:29:35;12.10;99.90
52397;DHT22;38322;53.108;6.308;2023-05-14T19:32:02;12.00;99.90
52397;DHT22;38322;53.108;6.308;2023-05-14T19:34:29;11.90;99.90
52397;DHT22;38322;53.108;6.308;2023-05-14T19:36:55;11.90;99.90
52397;DHT22;38322;53.108;6.308;2023-05-14T19:39:21;11.90;99.90
52397;DHT22;38322;53.108;6.308;2023-05-14T19:41:47;11.90;99.90
52397;DHT22;38322;53.108;6.308;2023-05-14T19:44:12;12.00;99.90
52397;DHT22;38322;53.108;6.308;2023-05-14T19:46:39;11.80;99.90
52397;DHT22;38322;53.108;6.308;2023-05-14T19:49:05;11.90;99.90
52397;DHT22;38322;53.108;6.308;2023-05-14T19:51:31;11.80;99.90
52397;DHT22;38322;53.108;6.308;2023-05-14T19:53:56;11.80;99.90
52397;DHT22;38322;53.108;6.308;2023-05-14T19:56:22;11.80;99.90
52397;DHT22;38322;53.108;6.308;2023-05-14T19:58:48;11.70;99.90
